METAR Data
IDs: Format: Raw Decoded Include TAF

Data at: 1718 UTC 21 Sep 2018

KPSX 211653Z AUTO 14009KT 10SM FEW016 31/28 A2995 RMK AO2 LTG DSNT N SLP142 T03060278
KPSX 211553Z AUTO 13010KT 10SM FEW017 SCT032 30/27 A2995 RMK AO2 SLP141 T03000267
KPSX 211453Z AUTO 16008KT 10SM FEW018 FEW027 31/28 A2995 RMK AO2 SLP141 T03060278 51009
KPSX 211353Z AUTO 14007KT 9SM CLR 29/28 A2994 RMK AO2 SLP139 T02890278
KPSX 211253Z AUTO 14006KT 9SM CLR 28/27 A2993 RMK AO2 SLP135 T02780272
KPSX 211153Z AUTO 15007KT 10SM FEW110 28/27 A2992 RMK AO2 SLP132 70001 T02830267 10283 20272 52004
KPSX 211053Z AUTO 16008KT 10SM CLR 28/27 A2992 RMK AO2 SLP131 T02830267
KPSX 210953Z AUTO 16006KT 10SM FEW110 28/26 A2991 RMK AO2 SLP128 T02830261
KPSX 210853Z AUTO 16007KT 10SM CLR 28/26 A2991 RMK AO2 SLP128 T02830256 55010
KPSX 210753Z AUTO 15012KT 10SM CLR 28/27 A2991 RMK AO2 SLP127 T02830267
KPSX 210653Z AUTO 14009KT 10SM CLR 28/27 A2992 RMK AO2 SLP132 T02830267
KPSX 210553Z AUTO 15010KT 10SM CLR 28/27 A2994 RMK AO2 SLP138 60001 T02830267 10294 20278 403220267 50003
KPSX 210453Z AUTO 14009KT 10SM CLR 28/27 A2995 RMK AO2 SLP142 T02830267
KPSX 210353Z AUTO 15010KT 10SM FEW020 SCT028 28/27 A2995 RMK AO2 SLP141 T02830267
KPSX 210253Z AUTO 13009KT 10SM CLR 28/27 A2993 RMK AO2 SLP136 60001 T02830272 53008
KPSX 210153Z AUTO 13008KT 10SM CLR 28/27 A2992 RMK AO2 RAE09 SLP131 P0000 T02780272
KPSX 210053Z AUTO 12006KT 10SM -RA CLR 28/27 A2991 RMK AO2 RAB04 SLP129 P0001 T02780272
KPSX 202353Z AUTO 15010KT 10SM FEW021 29/27 A2991 RMK AO2 SLP128 T02940267 10322 20294 53003
KPSX 202253Z AUTO 15011KT 10SM CLR 29/26 A2990 RMK AO2 LTG DSNT SW SLP123 T02940261
KPSX 202153Z AUTO 15012KT 10SM FEW022 30/26 A2989 RMK AO2 SLP122 T03000256
KPSX 202053Z AUTO 16011KT 10SM FEW025 FEW037 32/26 A2990 RMK AO2 SLP125 T03170261 58018
KPSX 201953Z AUTO 15013KT 10SM FEW026 FEW049 31/27 A2992 RMK AO2 SLP130 T03110267
KPSX 201853Z AUTO 16010KT 10SM FEW029 FEW075 32/26 A2994 RMK AO2 SLP138 T03170261
KPSX 201753Z AUTO 15012KT 10SM FEW024 32/27 A2995 RMK AO2 SLP142 T03170267 10317 20272 58003
KPSX 201653Z AUTO 16007KT 10SM CLR 29/27 A2997 RMK AO2 SLP148 T02940267
KPSX 201553Z AUTO 16006KT 10SM FEW017 FEW022 29/27 A2997 RMK AO2 SLP149 T02890272
KPSX 201453Z AUTO 14007KT 10SM CLR 28/26 A2996 RMK AO2 SLP145 T02830261 51016
KPSX 201353Z AUTO 16006KT 10SM CLR 29/27 A2995 RMK AO2 SLP140 T02890267
KPSX 201324Z AUTO 15008KT 10SM FEW045 29/27 A2994 RMK AO2 T02890272
KPSX 201309Z AUTO 15005KT 10SM VCTS FEW020 29/27 A2994 RMK AO2 LTG DSNT NW T02890272
KPSX 201302Z AUTO 15006KT 10SM SCT020 28/27 A2994 RMK AO2 LTG DSNT NW T02830272
KPSX 201253Z AUTO 17004KT 10SM SCT021 BKN026 28/27 A2994 RMK AO2 LTG DSNT W SLP137 T02830272
KPSX 201235Z AUTO 17004KT 10SM CLR 28/27 A2993 RMK AO2 LTG DSNT W T02780272
KPSX 201217Z AUTO 14006KT 10SM VCTS CLR 28/27 A2993 RMK AO2 LTG DSNT SW T02780267
KPSX 201153Z AUTO 14004KT 10SM CLR 27/27 A2992 RMK AO2 SLP130 T02720267 10283 20267 50002
KPSX 201053Z AUTO 12004KT 10SM FEW019 27/25 A2992 RMK AO2 TSB0954E12 SLP130 T02670250
KPSX 201046Z AUTO 13003KT 10SM SCT019 SCT026 27/26 A2992 RMK AO2 TSB0954E12 T02720256
KPSX 201034Z AUTO 11004KT 10SM SCT019 BKN024 BKN050 27/26 A2991 RMK AO2 TSB0954E12 T02720256
KPSX 201016Z AUTO 10006KT 10SM FEW095 27/27 A2991 RMK AO2 TSB0954E12 T02720267
KPSX 201000Z AUTO 14005KT 10SM TS CLR 27/27 A2991 RMK AO2 LTG DSNT SE TSB0954 T02670267
KPSX 200953Z AUTO 14006KT 10SM VCTS CLR 27/27 A2991 RMK AO2 LTG DSNT SE SLP128 T02720267
KPSX 200951Z AUTO 14005KT 10SM VCTS CLR 27/27 A2991 RMK AO2 LTG DSNT SE
KPSX 200925Z AUTO 15005KT 10SM SCT019 27/27 A2992 RMK AO2 T02720267
KPSX 200911Z AUTO 15005KT 10SM BKN020 BKN026 BKN032 28/27 A2992 RMK AO2 T02780267
KPSX 200853Z AUTO 16004KT 10SM FEW020 SCT031 28/27 A2992 RMK AO2 SLP132 T02780267 56008
KPSX 200753Z AUTO 15006KT 10SM CLR 28/26 A2993 RMK AO2 SLP134 T02780261
KPSX 200653Z AUTO 16007KT 10SM FEW020 28/26 A2993 RMK AO2 SLP136 T02830261
KPSX 200553Z AUTO 15006KT 10SM FEW020 28/26 A2994 RMK AO2 SLP140 T02780261 10289 20267 403220244 51005